createdAt,value
2019-05-30T00:00:29.922Z,56.37
2019-05-30T00:03:02.330Z,56.23
2019-05-30T00:05:33.174Z,56.52
2019-05-30T00:08:04.410Z,57.15
2019-05-30T00:10:35.178Z,56.85
2019-05-30T00:13:05.891Z,58.50
2019-05-30T00:15:38.574Z,59.29
2019-05-30T00:18:09.254Z,59.17
2019-05-30T00:20:39.856Z,59.56
2019-05-30T00:23:13.365Z,59.48
2019-05-30T00:25:44.111Z,59.22
2019-05-30T00:28:15.815Z,59.94
2019-05-30T00:30:47.576Z,59.94
2019-05-30T00:33:19.294Z,60.31
2019-05-30T00:35:59.846Z,60.55
2019-05-30T00:38:36.053Z,60.65
2019-05-30T00:41:06.709Z,60.22
2019-05-30T00:43:37.386Z,60.61
2019-05-30T00:46:09.077Z,60.99
2019-05-30T00:48:39.764Z,61.25
2019-05-30T00:51:10.442Z,61.08
2019-05-30T00:53:41.042Z,61.10
2019-05-30T00:56:12.831Z,61.55
2019-05-30T00:58:43.435Z,61.84
2019-05-30T01:01:14.117Z,60.59
2019-05-30T01:03:44.762Z,60.54
2019-05-30T01:06:16.481Z,61.73
2019-05-30T01:08:47.235Z,62.10
2019-05-30T01:11:18.042Z,62.30
2019-05-30T01:13:48.801Z,62.09
2019-05-30T01:16:19.501Z,62.17
2019-05-30T01:18:50.158Z,62.34
2019-05-30T01:21:20.852Z,61.53
2019-05-30T01:23:51.442Z,62.33
2019-05-30T01:26:22.049Z,62.79
2019-05-30T01:28:52.814Z,62.71
2019-05-30T01:31:23.613Z,62.92
2019-05-30T01:33:54.363Z,63.24
2019-05-30T01:36:25.132Z,63.18
2019-05-30T01:38:55.965Z,63.58
2019-05-30T01:41:26.879Z,63.45
2019-05-30T01:43:57.782Z,62.92
2019-05-30T01:46:28.527Z,63.16
2019-05-30T01:49:00.229Z,63.30
2019-05-30T01:51:31.123Z,63.25
2019-05-30T01:54:02.572Z,63.50
2019-05-30T01:56:33.396Z,63.67
2019-05-30T01:59:04.779Z,63.59
2019-05-30T02:01:35.823Z,63.77
2019-05-30T02:04:07.340Z,63.97
2019-05-30T02:06:38.372Z,63.84
2019-05-30T02:09:10.255Z,63.94
2019-05-30T02:11:41.531Z,64.33
2019-05-30T02:14:12.260Z,64.09
2019-05-30T02:16:43.093Z,64.63
2019-05-30T02:19:13.843Z,64.15
2019-05-30T02:21:44.645Z,64.65
2019-05-30T02:24:15.577Z,64.64
2019-05-30T02:26:46.421Z,64.43
2019-05-30T02:29:17.227Z,64.80
2019-05-30T02:31:47.986Z,64.23
2019-05-30T02:34:18.768Z,64.58
2019-05-30T02:36:50.527Z,64.57
2019-05-30T02:39:21.287Z,64.86
2019-05-30T02:41:52.081Z,65.48
2019-05-30T02:44:22.864Z,65.08
2019-05-30T02:46:55.298Z,65.39
2019-05-30T02:49:26.424Z,64.93
2019-05-30T02:51:57.744Z,65.17
2019-05-30T02:54:28.538Z,65.61
2019-05-30T02:56:59.323Z,65.21
2019-05-30T02:59:31.063Z,65.12
2019-05-30T03:02:05.303Z,65.00
2019-05-30T03:04:35.339Z,65.28
2019-05-30T03:07:08.336Z,65.16
2019-05-30T03:09:38.878Z,65.22
2019-05-30T03:12:11.459Z,65.63
2019-05-30T03:14:43.348Z,65.54
2019-05-30T03:17:14.818Z,65.91
2019-05-30T03:19:45.562Z,66.26
2019-05-30T03:22:16.391Z,67.08
2019-05-30T03:24:47.164Z,67.71
2019-05-30T03:27:18.010Z,67.84
2019-05-30T03:29:48.780Z,67.88
2019-05-30T03:34:57.873Z,67.64
2019-05-30T03:37:30.491Z,68.89
2019-05-30T03:40:08.057Z,68.81
2019-05-30T03:42:38.746Z,69.53
2019-05-30T03:45:20.053Z,68.69
2019-05-30T03:47:53.172Z,70.06
2019-05-30T03:50:25.748Z,70.58
2019-05-30T03:52:56.763Z,70.95
2019-05-30T03:55:27.679Z,71.27
2019-05-30T03:58:14.443Z,71.80
2019-05-30T04:00:53.424Z,70.28
2019-05-30T04:03:56.691Z,70.45
2019-05-30T04:06:30.977Z,70.29
2019-05-30T04:09:09.685Z,70.55
2019-05-30T04:11:53.901Z,70.37
2019-05-30T04:14:26.989Z,70.91
2019-05-30T04:16:57.657Z,70.19
2019-05-30T04:19:28.366Z,69.71
2019-05-30T04:22:00.107Z,69.45
2019-05-30T04:24:30.780Z,69.56
2019-05-30T04:27:01.371Z,69.65
2019-05-30T04:29:33.138Z,69.92
2019-05-30T04:32:05.956Z,69.58
2019-05-30T04:34:36.566Z,69.45
2019-05-30T04:37:08.245Z,69.08
2019-05-30T04:39:39.092Z,69.04
2019-05-30T04:42:11.191Z,68.88
2019-05-30T04:44:41.967Z,68.67
2019-05-30T04:47:14.199Z,68.35
2019-05-30T04:49:45.886Z,68.20
2019-05-30T04:52:21.081Z,68.52
2019-05-30T04:54:48.785Z,68.19
2019-05-30T04:57:25.182Z,68.75
2019-05-30T04:59:56.178Z,69.03
2019-05-30T05:02:26.794Z,68.33
2019-05-30T05:04:57.478Z,68.95
2019-05-30T05:07:28.184Z,69.04
2019-05-30T05:09:58.889Z,68.93
2019-05-30T05:12:29.559Z,68.41
2019-05-30T05:15:01.260Z,67.84
2019-05-30T05:17:32.102Z,68.09
2019-05-30T05:20:04.248Z,66.79
2019-05-30T05:22:38.128Z,66.24
2019-05-30T05:25:09.165Z,67.08
2019-05-30T05:27:39.757Z,66.19
2019-05-30T05:30:13.881Z,65.81
2019-05-30T05:32:44.687Z,64.86
2019-05-30T05:35:16.706Z,65.28
2019-05-30T05:37:47.422Z,65.88
2019-05-30T05:40:18.505Z,65.95
2019-05-30T05:42:49.191Z,65.51
2019-05-30T05:45:22.658Z,65.45
2019-05-30T05:47:54.593Z,65.72
2019-05-30T05:50:26.387Z,65.55
2019-05-30T05:52:59.640Z,65.49
2019-05-30T05:55:30.514Z,64.67
2019-05-30T05:58:04.241Z,64.87
2019-05-30T06:00:37.668Z,65.33
2019-05-30T06:03:08.469Z,65.51
2019-05-30T06:05:52.580Z,65.07
2019-05-30T06:08:17.346Z,65.22
2019-05-30T06:10:50.293Z,65.09
2019-05-30T06:13:24.867Z,65.39
2019-05-30T06:15:55.540Z,65.25
2019-05-30T06:18:26.389Z,65.47
2019-05-30T06:20:57.179Z,65.81
2019-05-30T06:23:28.784Z,65.43
2019-05-30T06:25:59.498Z,65.91
2019-05-30T06:28:30.383Z,67.57
2019-05-30T06:31:02.107Z,68.84
2019-05-30T06:33:32.777Z,68.90
2019-05-30T06:36:09.262Z,70.17
2019-05-30T06:38:39.990Z,70.10
2019-05-30T06:41:10.699Z,71.67
2019-05-30T06:43:43.377Z,72.00
2019-05-30T06:46:16.109Z,71.92
2019-05-30T06:48:46.720Z,73.60
2019-05-30T06:51:17.387Z,73.71
2019-05-30T06:53:50.106Z,74.42
2019-05-30T06:56:23.282Z,73.04
2019-05-30T06:58:56.001Z,73.93
2019-05-30T07:01:27.890Z,74.83
2019-05-30T07:03:58.831Z,74.35
2019-05-30T07:06:34.359Z,74.22
2019-05-30T07:09:08.271Z,74.33
2019-05-30T07:11:43.077Z,74.61
2019-05-30T07:14:13.764Z,74.79
2019-05-30T07:16:46.448Z,75.34
2019-05-30T07:19:17.044Z,75.35
2019-05-30T07:21:47.753Z,76.18
2019-05-30T07:24:19.430Z,77.14
2019-05-30T07:26:50.063Z,77.29
2019-05-30T07:29:20.807Z,79.10
2019-05-30T07:31:51.421Z,79.36
2019-05-30T07:34:22.060Z,80.25
2019-05-30T07:36:53.755Z,80.79
2019-05-30T07:39:35.247Z,80.36
2019-05-30T07:42:06.508Z,81.85
2019-05-30T07:44:37.576Z,82.12
2019-05-30T07:47:08.181Z,82.79
2019-05-30T07:49:39.882Z,83.13
2019-05-30T07:52:11.634Z,83.09
2019-05-30T07:54:42.372Z,83.60
2019-05-30T07:57:14.029Z,83.03
2019-05-30T07:59:44.647Z,82.97
2019-05-30T08:02:15.269Z,83.75
2019-05-30T08:04:47.006Z,83.57
2019-05-30T08:07:17.880Z,83.46
2019-05-30T08:09:48.618Z,83.39
2019-05-30T08:12:19.306Z,83.15
2019-05-30T08:14:52.007Z,82.78
2019-05-30T08:17:22.830Z,82.88
2019-05-30T08:19:53.596Z,82.66
2019-05-30T08:22:24.344Z,82.88
2019-05-30T08:24:55.133Z,82.77
2019-05-30T08:27:25.859Z,82.25
2019-05-30T08:29:56.645Z,82.47
2019-05-30T08:32:28.362Z,82.56
2019-05-30T08:34:59.189Z,82.07
2019-05-30T08:37:32.009Z,82.27
2019-05-30T08:40:02.492Z,82.04
2019-05-30T08:42:33.277Z,81.82
2019-05-30T08:45:10.149Z,81.95
2019-05-30T08:47:42.917Z,81.51
2019-05-30T08:50:14.661Z,81.37
2019-05-30T08:52:45.375Z,81.90
2019-05-30T08:55:18.094Z,80.96
2019-05-30T08:57:49.267Z,81.01
2019-05-30T09:00:20.798Z,80.56
2019-05-30T09:02:51.507Z,80.42
2019-05-30T09:05:24.188Z,79.72
2019-05-30T09:07:54.946Z,79.11
2019-05-30T09:10:27.671Z,79.38
2019-05-30T09:12:59.396Z,77.62
2019-05-30T09:15:31.307Z,78.24
2019-05-30T09:18:07.375Z,77.87
2019-05-30T09:20:39.810Z,77.99
2019-05-30T09:23:11.919Z,77.46
2019-05-30T09:25:46.470Z,77.82
2019-05-30T09:28:15.965Z,77.47
2019-05-30T09:30:48.507Z,76.48
2019-05-30T09:33:19.276Z,75.82
2019-05-30T09:35:49.959Z,75.76
2019-05-30T09:38:21.552Z,76.47
2019-05-30T09:40:53.282Z,76.04
2019-05-30T09:43:23.978Z,76.12
2019-05-30T09:45:55.819Z,75.98
2019-05-30T09:48:26.532Z,76.03
2019-05-30T09:50:57.250Z,76.62
2019-05-30T09:53:27.951Z,75.66
2019-05-30T09:56:00.685Z,75.94
2019-05-30T09:58:31.394Z,75.74
2019-05-30T10:01:03.083Z,75.32
2019-05-30T10:03:33.832Z,74.91
2019-05-30T10:06:05.166Z,76.04
2019-05-30T10:08:37.453Z,74.59
2019-05-30T10:11:08.222Z,74.55
2019-05-30T10:13:39.960Z,74.77
2019-05-30T10:16:10.777Z,74.58
2019-05-30T10:18:41.575Z,73.95
2019-05-30T10:21:12.269Z,73.41
2019-05-30T10:23:43.304Z,73.78
2019-05-30T10:26:14.141Z,73.49
2019-05-30T10:28:46.093Z,72.33
2019-05-30T10:31:17.422Z,71.90
2019-05-30T10:33:49.378Z,71.94
2019-05-30T10:36:20.599Z,72.28
2019-05-30T10:38:52.193Z,72.50
2019-05-30T10:41:24.137Z,72.38
2019-05-30T10:43:55.824Z,72.36
2019-05-30T10:46:26.662Z,72.60
2019-05-30T10:48:57.840Z,72.52
2019-05-30T10:51:28.747Z,72.34
2019-05-30T10:53:59.588Z,72.53
2019-05-30T10:56:30.619Z,72.68
2019-05-30T10:59:02.238Z,71.90
2019-05-30T11:01:38.599Z,71.82
2019-05-30T11:04:11.304Z,72.30
2019-05-30T11:07:12.103Z,71.98
2019-05-30T11:09:48.399Z,72.22
2019-05-30T11:12:19.327Z,71.80
2019-05-30T11:14:51.414Z,71.14
2019-05-30T11:17:22.212Z,70.95
2019-05-30T11:19:54.063Z,71.51
2019-05-30T11:22:29.239Z,71.50
2019-05-30T11:25:01.919Z,70.99
2019-05-30T11:27:33.132Z,71.05
2019-05-30T11:30:05.885Z,70.66
2019-05-30T11:32:36.556Z,70.63
2019-05-30T11:35:10.412Z,70.70
2019-05-30T11:37:41.124Z,71.15
2019-05-30T11:40:12.057Z,71.21
2019-05-30T11:42:49.306Z,71.18
2019-05-30T11:45:20.136Z,70.54
2019-05-30T11:47:52.087Z,70.70
2019-05-30T11:50:30.213Z,70.35
2019-05-30T11:53:01.419Z,70.59
2019-05-30T11:55:34.811Z,70.31
2019-05-30T11:58:05.606Z,70.33
2019-05-30T12:00:36.293Z,70.57
2019-05-30T12:03:10.717Z,71.44
2019-05-30T12:05:44.154Z,71.16
2019-05-30T12:08:15.003Z,70.28
2019-05-30T12:10:45.777Z,70.49
2019-05-30T12:13:16.493Z,70.39
2019-05-30T12:15:47.273Z,70.42
2019-05-30T12:18:19.108Z,70.25
2019-05-30T12:20:49.823Z,70.33
2019-05-30T12:23:21.075Z,70.33
2019-05-30T12:25:52.043Z,70.32
2019-05-30T12:28:22.908Z,70.65
2019-05-30T12:30:59.064Z,70.42
2019-05-30T12:33:26.207Z,70.71
2019-05-30T12:35:57.007Z,70.61
2019-05-30T12:38:27.841Z,70.28
2019-05-30T12:40:58.782Z,70.42
2019-05-30T12:43:29.974Z,71.00
2019-05-30T12:46:01.894Z,70.62
2019-05-30T12:48:33.930Z,70.74
2019-05-30T12:51:05.569Z,71.14
2019-05-30T12:53:37.559Z,70.98
2019-05-30T12:56:09.405Z,71.20
2019-05-30T12:58:40.841Z,70.90
2019-05-30T13:01:11.704Z,70.98
2019-05-30T13:03:42.434Z,71.50
2019-05-30T13:06:17.909Z,71.39
2019-05-30T13:08:48.720Z,71.43
2019-05-30T13:11:20.119Z,71.63
2019-05-30T13:13:50.872Z,72.08
2019-05-30T13:16:22.454Z,72.03
2019-05-30T13:18:54.174Z,72.18
2019-05-30T13:21:24.969Z,72.64
2019-05-30T13:23:55.714Z,72.59
2019-05-30T13:26:26.525Z,72.57
2019-05-30T13:28:57.983Z,72.86
2019-05-30T13:31:28.854Z,72.66
2019-05-30T13:34:01.118Z,72.67
2019-05-30T13:36:32.040Z,72.42
2019-05-30T13:39:07.511Z,72.17
2019-05-30T13:41:38.691Z,72.66
2019-05-30T13:44:10.005Z,72.21
2019-05-30T13:46:46.928Z,72.50
2019-05-30T13:49:22.478Z,72.71
2019-05-30T13:51:53.947Z,72.49
2019-05-30T13:54:25.896Z,72.44
2019-05-30T13:56:56.642Z,72.42
2019-05-30T13:59:27.328Z,72.31
2019-05-30T14:01:59.853Z,71.89
2019-05-30T14:04:32.575Z,71.56
2019-05-30T14:07:04.202Z,71.94
2019-05-30T14:09:36.172Z,71.58
2019-05-30T14:12:08.725Z,71.29
2019-05-30T14:14:39.880Z,70.93
2019-05-30T14:17:14.990Z,70.45
2019-05-30T14:19:46.372Z,70.19
2019-05-30T14:22:17.658Z,69.86
2019-05-30T14:24:48.370Z,70.18
2019-05-30T14:27:22.168Z,70.01
2019-05-30T14:29:55.002Z,71.06
2019-05-30T14:32:25.671Z,71.05
2019-05-30T14:34:56.455Z,71.14
2019-05-30T14:37:27.064Z,71.63
2019-05-30T14:39:57.895Z,71.01
2019-05-30T14:42:28.917Z,70.12
2019-05-30T14:44:59.820Z,70.28
2019-05-30T14:47:30.597Z,70.58
2019-05-30T14:50:01.483Z,70.36
2019-05-30T14:52:32.282Z,70.45
2019-05-30T14:55:03.243Z,70.77
2019-05-30T14:57:33.991Z,69.85
2019-05-30T15:00:07.376Z,69.46
2019-05-30T15:02:38.162Z,69.66
2019-05-30T15:05:09.594Z,70.12
2019-05-30T15:07:42.059Z,70.26
2019-05-30T15:10:17.010Z,70.72
2019-05-30T15:12:48.124Z,70.89
2019-05-30T15:15:30.108Z,69.96
2019-05-30T15:18:01.819Z,69.37
2019-05-30T15:20:32.497Z,69.43
2019-05-30T15:23:11.680Z,69.81
2019-05-30T15:25:43.893Z,69.65
2019-05-30T15:28:14.564Z,68.90
2019-05-30T15:30:45.262Z,69.56
2019-05-30T15:33:16.635Z,69.23
2019-05-30T15:35:47.421Z,69.83
2019-05-30T15:38:21.914Z,69.34
2019-05-30T15:40:52.598Z,69.54
2019-05-30T15:43:23.402Z,69.11
2019-05-30T15:45:54.045Z,68.46
2019-05-30T15:48:24.687Z,68.66
2019-05-30T15:50:55.433Z,68.25
2019-05-30T15:53:26.110Z,68.59
2019-05-30T15:55:56.889Z,68.21
2019-05-30T15:58:28.649Z,68.54
2019-05-30T16:01:00.546Z,69.28
2019-05-30T16:03:31.312Z,68.78
2019-05-30T16:06:02.178Z,68.81
2019-05-30T16:08:32.866Z,68.04
2019-05-30T16:11:05.672Z,68.75
2019-05-30T16:13:42.854Z,67.89
2019-05-30T16:16:13.630Z,68.04
2019-05-30T16:18:45.264Z,67.71
2019-05-30T16:21:17.150Z,67.99
2019-05-30T16:23:49.452Z,67.73
2019-05-30T16:26:20.143Z,67.30
2019-05-30T16:28:51.959Z,67.06
2019-05-30T16:31:26.057Z,67.29
2019-05-30T16:33:57.684Z,67.58
2019-05-30T16:36:29.503Z,67.82
2019-05-30T16:39:00.128Z,67.95
2019-05-30T16:41:31.355Z,67.99
2019-05-30T16:44:03.162Z,68.39
2019-05-30T16:46:33.990Z,67.91
2019-05-30T16:49:05.703Z,68.09
2019-05-30T16:51:36.433Z,67.82
2019-05-30T16:54:07.114Z,67.12
2019-05-30T16:56:37.937Z,66.63
2019-05-30T16:59:08.766Z,66.60
2019-05-30T17:01:39.534Z,66.33
2019-05-30T17:04:10.235Z,65.62
2019-05-30T17:06:40.961Z,64.99
2019-05-30T17:09:11.780Z,65.06
2019-05-30T17:11:42.398Z,64.69
2019-05-30T17:14:13.400Z,64.75
2019-05-30T17:16:44.272Z,65.01
2019-05-30T17:19:16.405Z,64.83
2019-05-30T17:21:47.388Z,65.17
2019-05-30T17:24:25.217Z,65.05
2019-05-30T17:26:56.285Z,64.63
2019-05-30T17:29:30.593Z,64.04
2019-05-30T17:32:01.785Z,63.88
2019-05-30T17:34:36.978Z,63.99
2019-05-30T17:37:08.719Z,63.93
2019-05-30T17:39:42.310Z,64.02
2019-05-30T17:42:15.897Z,64.14
2019-05-30T17:44:47.984Z,64.22
2019-05-30T17:47:21.298Z,64.10
2019-05-30T17:49:52.818Z,64.65
2019-05-30T17:52:25.790Z,64.40
2019-05-30T17:54:57.489Z,64.85
2019-05-30T17:57:30.228Z,65.34
2019-05-30T18:00:04.239Z,65.04
2019-05-30T18:02:38.347Z,65.58
2019-05-30T18:05:09.804Z,65.45
2019-05-30T18:07:40.969Z,65.98
2019-05-30T18:10:15.033Z,65.43
2019-05-30T18:12:47.137Z,65.75
2019-05-30T18:15:18.173Z,66.36
2019-05-30T18:17:49.442Z,65.58
2019-05-30T18:20:23.141Z,65.97
2019-05-30T18:22:54.094Z,65.74
2019-05-30T18:25:25.623Z,66.02
2019-05-30T18:27:57.518Z,66.82
2019-05-30T18:30:40.323Z,66.03
2019-05-30T18:33:12.639Z,66.16
2019-05-30T18:35:44.270Z,66.82
2019-05-30T18:38:17.059Z,67.18
2019-05-30T18:40:48.695Z,67.83
2019-05-30T18:43:20.592Z,67.83
2019-05-30T18:45:52.122Z,67.86
2019-05-30T18:48:23.327Z,68.64
2019-05-30T18:50:54.444Z,68.15
2019-05-30T18:53:28.244Z,68.21
2019-05-30T18:56:03.897Z,68.46
2019-05-30T18:58:37.545Z,68.93
2019-05-30T19:04:22.752Z,69.04
2019-05-30T19:06:53.798Z,67.32
2019-05-30T19:09:25.424Z,68.53
2019-05-30T19:11:57.163Z,68.08
2019-05-30T19:14:32.096Z,68.07
2019-05-30T19:17:03.433Z,67.67
2019-05-30T19:19:35.868Z,67.11
2019-05-30T19:22:07.322Z,66.52
2019-05-30T19:24:40.860Z,66.01
2019-05-30T19:27:14.266Z,66.73
2019-05-30T19:29:45.581Z,65.90
2019-05-30T19:32:16.793Z,65.92
2019-05-30T19:34:49.531Z,65.28
2019-05-30T19:37:22.144Z,65.39
2019-05-30T19:39:53.250Z,65.33
2019-05-30T19:42:25.201Z,65.29
2019-05-30T19:45:01.218Z,64.80
2019-05-30T19:47:34.634Z,64.94
2019-05-30T19:50:07.660Z,64.95
2019-05-30T19:52:39.638Z,65.06
2019-05-30T19:55:11.551Z,65.16
2019-05-30T19:57:42.757Z,65.07
2019-05-30T20:00:14.986Z,64.94
2019-05-30T20:02:47.308Z,64.73
2019-05-30T20:05:22.120Z,64.63
2019-05-30T20:07:54.038Z,64.86
2019-05-30T20:10:27.591Z,65.04
2019-05-30T20:12:58.717Z,64.81
2019-05-30T20:15:31.167Z,64.61
2019-05-30T20:18:02.678Z,65.01
2019-05-30T20:20:52.580Z,64.90
2019-05-30T20:23:06.944Z,65.01
2019-05-30T20:25:41.884Z,65.47
2019-05-30T20:28:12.049Z,65.28
2019-05-30T20:30:45.452Z,65.73
2019-05-30T20:33:19.794Z,66.15
2019-05-30T20:35:50.897Z,65.87
2019-05-30T20:38:22.159Z,66.08
2019-05-30T20:40:54.971Z,65.64
2019-05-30T20:43:26.988Z,66.41
2019-05-30T20:45:57.779Z,66.62
2019-05-30T20:48:31.130Z,66.91
2019-05-30T20:51:02.935Z,66.98
2019-05-30T20:53:35.225Z,66.87
2019-05-30T20:56:10.015Z,66.25
2019-05-30T20:58:41.815Z,66.73
2019-05-30T21:01:13.813Z,66.77
2019-05-30T21:03:45.839Z,67.78
2019-05-30T21:06:18.373Z,67.60
2019-05-30T21:08:52.091Z,68.21
2019-05-30T21:11:24.970Z,69.11
2019-05-30T21:13:55.739Z,69.65
2019-05-30T21:16:30.601Z,69.88
2019-05-30T21:19:07.663Z,70.06
2019-05-30T21:21:42.535Z,70.43
2019-05-30T21:24:21.389Z,70.61
2019-05-30T21:26:54.417Z,70.23
2019-05-30T21:29:31.539Z,70.43
2019-05-30T21:32:05.966Z,70.80
2019-05-30T21:34:37.611Z,70.76
2019-05-30T21:37:09.491Z,71.12
2019-05-30T21:39:40.242Z,70.69
2019-05-30T21:42:12.026Z,71.10
2019-05-30T21:44:42.877Z,71.61
2019-05-30T21:47:13.793Z,71.19
2019-05-30T21:49:44.926Z,69.00
2019-05-30T21:52:16.012Z,68.88
2019-05-30T21:54:50.098Z,70.24
2019-05-30T21:57:22.103Z,70.19
2019-05-30T21:59:53.015Z,69.91
2019-05-30T22:02:29.736Z,70.14
2019-05-30T22:05:02.743Z,70.36
2019-05-30T22:07:34.980Z,68.95
2019-05-30T22:10:05.956Z,68.65
2019-05-30T22:12:36.675Z,69.83
2019-05-30T22:15:11.185Z,69.76
2019-05-30T22:17:41.889Z,69.91
2019-05-30T22:20:16.444Z,70.16
2019-05-30T22:22:48.120Z,70.18
2019-05-30T22:25:18.988Z,69.95
2019-05-30T22:27:50.540Z,69.50
2019-05-30T22:30:22.337Z,69.63
2019-05-30T22:32:52.980Z,69.82
2019-05-30T22:35:23.747Z,70.34
2019-05-30T22:37:56.437Z,69.93
2019-05-30T22:40:27.160Z,69.09
2019-05-30T22:42:57.927Z,70.23
2019-05-30T22:45:30.658Z,68.89
2019-05-30T22:48:01.345Z,69.26
2019-05-30T22:50:32.126Z,69.54
2019-05-30T22:53:03.855Z,69.74
2019-05-30T22:55:34.599Z,69.98
2019-05-30T22:58:05.255Z,70.23
2019-05-30T23:00:40.989Z,69.85
2019-05-30T23:03:15.786Z,70.10
2019-05-30T23:05:47.263Z,70.46
2019-05-30T23:08:19.204Z,70.48
2019-05-30T23:10:50.041Z,70.07
2019-05-30T23:13:23.030Z,70.23
2019-05-30T23:15:59.039Z,70.46
2019-05-30T23:18:29.651Z,71.02
2019-05-30T23:21:00.453Z,69.56
2019-05-30T23:23:31.283Z,69.12
2019-05-30T23:26:03.996Z,69.41
2019-05-30T23:28:41.569Z,69.22
2019-05-30T23:31:14.424Z,68.80
2019-05-30T23:33:52.302Z,68.65
2019-05-30T23:36:24.644Z,68.77
2019-05-30T23:38:55.382Z,68.56
2019-05-30T23:41:37.380Z,68.76
2019-05-30T23:44:11.903Z,68.21
2019-05-30T23:46:55.450Z,67.76
2019-05-30T23:49:29.252Z,68.04
2019-05-30T23:52:00.332Z,68.05
2019-05-30T23:54:38.091Z,67.97
2019-05-30T23:57:08.820Z,68.22
2019-05-30T23:59:39.536Z,68.18
